Terminal Aerodrome Forecast
Issued by NWS

Home | Current Version | Previous Version | Text Only | Print | Product List | Glossary On
Versions: 1 2 3 4 5 6 7 8 9 10 11 12 13 14 15 16 17 18 19 20 21 22 23 24 25 26 27 28 29 30 31 32 33 34 35 36 37 38 39
000
FTUS45 KBOI 251728
TAFTWF
TAF
KTWF 251728Z 2518/2618 18010KT P6SM BKN100
     FM252100 28010KT P6SM VCTS BKN070CB BKN100
      TEMPO 2523/2603 VRB15G25KT 3SM -SHRA BKN045 OVC060
     FM260300 18010KT P6SM VCSH BKN080=

USA.gov is the U.S. government's official web portal to all federal, state and local government web resources and services.